Time;durP1;ratioP1;P1;durP2;ratioP2;P2;SDS_P1;SDS_P2;PMS_P1;PMS_P2;Temp;Humidity;BMP_temperature;BMP_pressure;BME280_temperature;BME280_humidity;BME280_pressure;Samples;Min_cycle;Max_cycle;Signal;HPM_P1;HPM_P2
2023/07/24 00:01:35;;;;;;;2.73;2.53;;;;;;;;;;5027715;28;20194;-50
2023/07/24 00:04:01;;;;;;;2.70;2.50;;;;;;;;;;5012143;28;20630;-51
2023/07/24 00:06:27;;;;;;;3.10;2.80;;;;;;;;;;5016174;28;20503;-51
2023/07/24 00:08:53;;;;;;;3.00;2.65;;;;;;;;;;5025062;28;20441;-52
2023/07/24 00:11:19;;;;;;;2.87;2.67;;;;;;;;;;5027413;28;20198;-51
2023/07/24 00:13:45;;;;;;;2.90;2.70;;;;;;;;;;5012457;28;20183;-51
2023/07/24 00:16:11;;;;;;;2.83;2.60;;;;;;;;;;5018558;28;20259;-51
2023/07/24 00:18:37;;;;;;;3.00;2.80;;;;;;;;;;5024497;28;20294;-51
2023/07/24 00:21:03;;;;;;;2.90;2.70;;;;;;;;;;5022975;28;20572;-51
2023/07/24 00:23:29;;;;;;;2.80;2.60;;;;;;;;;;5018992;28;20544;-51
2023/07/24 00:25:55;;;;;;;2.93;2.73;;;;;;;;;;5017857;28;20202;-51
2023/07/24 00:28:21;;;;;;;3.37;2.57;;;;;;;;;;5021732;28;20215;-51
2023/07/24 00:30:47;;;;;;;3.23;2.73;;;;;;;;;;5013162;28;20194;-51
2023/07/24 00:33:13;;;;;;;2.60;2.40;;;;;;;;;;5024027;28;20179;-51
2023/07/24 00:35:40;;;;;;;3.20;2.57;;;;;;;;;;5018913;28;20194;-51
2023/07/24 00:38:06;;;;;;;3.00;2.70;;;;;;;;;;5027947;28;20248;-51
2023/07/24 00:40:32;;;;;;;2.63;2.43;;;;;;;;;;5018986;28;20240;-51
2023/07/24 00:42:58;;;;;;;2.70;2.50;;;;;;;;;;5027104;28;20186;-51
2023/07/24 00:45:24;;;;;;;4.07;2.67;;;;;;;;;;5014663;28;20197;-51
2023/07/24 00:47:51;;;;;;;2.90;2.70;;;;;;;;;;5013586;28;20214;-51
2023/07/24 00:50:17;;;;;;;3.07;2.70;;;;;;;;;;5026092;28;20186;-51
2023/07/24 00:52:43;;;;;;;2.83;2.63;;;;;;;;;;5012620;28;20183;-51
2023/07/24 00:55:10;;;;;;;2.90;2.70;;;;;;;;;;5028258;28;20256;-51
2023/07/24 00:57:36;;;;;;;3.17;2.87;;;;;;;;;;5026241;28;20210;-51
2023/07/24 01:00:03;;;;;;;2.93;2.43;;;;;;;;;;5020815;28;20549;-51
2023/07/24 01:02:30;;;;;;;2.87;2.67;;;;;;;;;;5010433;28;20194;-51
2023/07/24 01:04:56;;;;;;;2.73;2.53;;;;;;;;;;5016423;28;20225;-51
2023/07/24 01:07:22;;;;;;;2.63;2.43;;;;;;;;;;5019692;28;20186;-51
2023/07/24 01:09:50;;;;;;;3.20;2.70;;;;;;;;;;5018221;28;20210;-51
2023/07/24 01:12:32;;;;;;;3.40;2.90;;;;;;;;;;5014458;28;20266;-52
2023/07/24 01:15:01;;;;;;;2.73;2.53;;;;;;;;;;5014047;28;20196;-52
2023/07/24 01:17:28;;;;;;;2.77;2.57;;;;;;;;;;5013095;28;20194;-52
2023/07/24 01:19:58;;;;;;;2.90;2.70;;;;;;;;;;5017904;28;20632;-52
2023/07/24 01:22:28;;;;;;;3.00;2.80;;;;;;;;;;5028303;28;20649;-51
2023/07/24 01:25:12;;;;;;;3.17;2.87;;;;;;;;;;5017794;28;20187;-52
2023/07/24 01:27:45;;;;;;;2.93;2.50;;;;;;;;;;5013097;28;20216;-51
2023/07/24 01:30:12;;;;;;;3.20;3.00;;;;;;;;;;5022045;28;20715;-51
2023/07/24 01:32:38;;;;;;;4.23;3.13;;;;;;;;;;5020859;28;20645;-51
2023/07/24 01:35:05;;;;;;;3.03;2.77;;;;;;;;;;5010364;28;20182;-51
2023/07/24 01:37:31;;;;;;;3.03;2.83;;;;;;;;;;5016183;28;20182;-51
2023/07/24 01:39:57;;;;;;;3.27;2.97;;;;;;;;;;5023130;28;20171;-52
2023/07/24 01:42:25;;;;;;;3.53;2.60;;;;;;;;;;5024515;28;20617;-51
2023/07/24 01:44:54;;;;;;;3.20;2.90;;;;;;;;;;5031079;28;20225;-51
2023/07/24 01:47:21;;;;;;;2.67;2.47;;;;;;;;;;5009660;28;20179;-51
2023/07/24 01:49:47;;;;;;;4.67;2.77;;;;;;;;;;5009434;28;20272;-51
2023/07/24 01:52:13;;;;;;;3.27;3.00;;;;;;;;;;5009121;28;20182;-52
2023/07/24 01:54:39;;;;;;;2.97;2.67;;;;;;;;;;5014720;28;20260;-52
2023/07/24 01:57:05;;;;;;;2.67;2.47;;;;;;;;;;5009877;28;20181;-52
2023/07/24 01:59:32;;;;;;;2.73;2.53;;;;;;;;;;5016124;28;20197;-52
2023/07/24 02:01:58;;;;;;;3.60;3.30;;;;;;;;;;5009794;28;20666;-52
2023/07/24 02:04:25;;;;;;;2.77;2.57;;;;;;;;;;5012600;28;20213;-52
2023/07/24 02:06:51;;;;;;;2.93;2.73;;;;;;;;;;5008159;28;20270;-52
2023/07/24 02:09:20;;;;;;;2.90;2.70;;;;;;;;;;5017861;28;20694;-52
2023/07/24 02:11:46;;;;;;;3.70;3.40;;;;;;;;;;5010210;28;20658;-51
2023/07/24 02:14:13;;;;;;;3.10;2.90;;;;;;;;;;5016809;28;20673;-51
2023/07/24 02:16:40;;;;;;;2.87;2.67;;;;;;;;;;5023036;28;20709;-51
2023/07/24 02:19:06;;;;;;;4.27;2.63;;;;;;;;;;5014660;28;20662;-51
2023/07/24 02:21:32;;;;;;;3.03;2.83;;;;;;;;;;5015280;28;20186;-51
2023/07/24 02:23:59;;;;;;;3.17;2.90;;;;;;;;;;5010036;28;20190;-51
2023/07/24 02:26:25;;;;;;;3.90;3.37;;;;;;;;;;5013337;28;20236;-51
2023/07/24 02:28:52;;;;;;;3.07;2.77;;;;;;;;;;5009255;28;20214;-51
2023/07/24 02:31:18;;;;;;;3.80;3.07;;;;;;;;;;5011733;28;20193;-51
2023/07/24 02:33:44;;;;;;;3.20;2.90;;;;;;;;;;5019642;28;20185;-51
2023/07/24 02:36:10;;;;;;;3.40;2.93;;;;;;;;;;5012274;28;20183;-51
2023/07/24 02:38:36;;;;;;;3.07;2.77;;;;;;;;;;5023595;28;20655;-51
2023/07/24 02:41:02;;;;;;;3.20;2.97;;;;;;;;;;5029173;28;20256;-50
2023/07/24 02:43:29;;;;;;;4.00;2.70;;;;;;;;;;5027769;28;20198;-51
2023/07/24 02:45:55;;;;;;;3.30;3.00;;;;;;;;;;5017350;28;20259;-50
2023/07/24 02:48:21;;;;;;;4.10;3.00;;;;;;;;;;5008982;28;20228;-51
2023/07/24 02:50:50;;;;;;;4.07;2.83;;;;;;;;;;5011399;28;20202;-51
2023/07/24 02:53:16;;;;;;;3.70;3.40;;;;;;;;;;5009253;28;20686;-51
2023/07/24 02:55:43;;;;;;;3.47;3.17;;;;;;;;;;5009224;28;20202;-51
2023/07/24 02:58:09;;;;;;;3.40;3.10;;;;;;;;;;5012077;28;20698;-51
2023/07/24 03:00:35;;;;;;;4.47;3.23;;;;;;;;;;5012590;28;20682;-53
2023/07/24 03:03:01;;;;;;;3.17;2.97;;;;;;;;;;5040357;28;20568;-52
2023/07/24 03:05:28;;;;;;;2.60;2.40;;;;;;;;;;5018098;28;20265;-52
2023/07/24 03:07:54;;;;;;;3.60;3.10;;;;;;;;;;5021124;28;20269;-52
2023/07/24 03:10:20;;;;;;;2.93;2.73;;;;;;;;;;5012450;28;20186;-52
2023/07/24 03:12:46;;;;;;;3.43;3.13;;;;;;;;;;5007798;28;20613;-52
2023/07/24 03:15:12;;;;;;;4.63;3.87;;;;;;;;;;5015757;28;20191;-52
2023/07/24 03:17:38;;;;;;;3.40;3.10;;;;;;;;;;5019655;28;20249;-52
2023/07/24 03:20:14;;;;;;;5.97;3.23;;;;;;;;;;5025851;28;20178;-52
2023/07/24 03:22:41;;;;;;;4.23;3.80;;;;;;;;;;5021660;28;20276;-51
2023/07/24 03:25:07;;;;;;;4.23;3.43;;;;;;;;;;5022200;28;20178;-52
2023/07/24 03:27:34;;;;;;;3.70;3.40;;;;;;;;;;5015547;28;20653;-51
2023/07/24 03:30:00;;;;;;;3.67;3.37;;;;;;;;;;5007942;28;20297;-52
2023/07/24 03:32:26;;;;;;;5.03;3.90;;;;;;;;;;5016963;28;20186;-51
2023/07/24 03:34:52;;;;;;;3.37;2.90;;;;;;;;;;5014303;28;20244;-52
2023/07/24 03:37:18;;;;;;;3.73;3.43;;;;;;;;;;5011976;28;20734;-52
2023/07/24 03:39:44;;;;;;;3.67;3.37;;;;;;;;;;5012112;28;20158;-52
2023/07/24 03:42:12;;;;;;;3.70;3.40;;;;;;;;;;5023760;28;20192;-52
2023/07/24 03:44:40;;;;;;;4.07;3.67;;;;;;;;;;5012546;28;20200;-51
2023/07/24 03:47:06;;;;;;;3.73;3.43;;;;;;;;;;5011927;28;20254;-52
2023/07/24 03:49:32;;;;;;;3.33;3.10;;;;;;;;;;5026317;28;20246;-52
2023/07/24 03:51:58;;;;;;;3.83;3.53;;;;;;;;;;5023131;28;20191;-52
2023/07/24 03:54:24;;;;;;;4.33;3.67;;;;;;;;;;5011643;28;20175;-52
2023/07/24 03:56:50;;;;;;;3.67;3.37;;;;;;;;;;5011741;28;20187;-52
2023/07/24 03:59:16;;;;;;;3.60;3.30;;;;;;;;;;5026006;28;20654;-52
2023/07/24 04:01:42;;;;;;;4.03;3.73;;;;;;;;;;5024492;28;20204;-52
2023/07/24 04:04:09;;;;;;;3.80;3.50;;;;;;;;;;5029883;28;20201;-52
2023/07/24 04:06:35;;;;;;;3.90;3.50;;;;;;;;;;5020388;28;20307;-52
2023/07/24 04:09:01;;;;;;;3.73;3.30;;;;;;;;;;5014734;28;20229;-52
2023/07/24 04:11:27;;;;;;;5.03;3.40;;;;;;;;;;5022773;28;20173;-52
2023/07/24 04:13:53;;;;;;;5.43;3.23;;;;;;;;;;5031085;28;20170;-52
2023/07/24 04:16:19;;;;;;;3.80;3.50;;;;;;;;;;5030395;28;20182;-52
2023/07/24 04:18:45;;;;;;;4.90;3.40;;;;;;;;;;5030109;28;20673;-52
2023/07/24 04:21:11;;;;;;;4.80;3.70;;;;;;;;;;5021793;28;20546;-51
2023/07/24 04:23:38;;;;;;;4.30;3.43;;;;;;;;;;5013812;28;20190;-51
2023/07/24 04:26:04;;;;;;;5.43;3.90;;;;;;;;;;5015345;28;20189;-52
2023/07/24 04:28:30;;;;;;;5.40;4.90;;;;;;;;;;5015578;28;20210;-52
2023/07/24 04:31:01;;;;;;;5.07;3.80;;;;;;;;;;5015602;28;20209;-52
2023/07/24 04:33:27;;;;;;;3.77;3.13;;;;;;;;;;5029595;28;20181;-52
2023/07/24 04:35:55;;;;;;;4.00;3.70;;;;;;;;;;5012445;28;20196;-51
2023/07/24 04:38:21;;;;;;;4.40;3.97;;;;;;;;;;5016960;28;20190;-52
2023/07/24 04:40:48;;;;;;;3.97;3.57;;;;;;;;;;5011211;28;20674;-52
2023/07/24 04:43:14;;;;;;;5.03;3.83;;;;;;;;;;5015541;28;20186;-51
2023/07/24 04:45:40;;;;;;;3.33;3.03;;;;;;;;;;5025356;28;20289;-50
2023/07/24 04:48:06;;;;;;;4.33;3.53;;;;;;;;;;5010984;28;20630;-50
2023/07/24 04:50:32;;;;;;;4.00;3.40;;;;;;;;;;5018361;28;20511;-50
2023/07/24 04:52:59;;;;;;;4.40;3.30;;;;;;;;;;5016740;28;20183;-50
2023/07/24 04:55:25;;;;;;;4.10;3.40;;;;;;;;;;5017899;28;20181;-50
2023/07/24 04:57:51;;;;;;;5.03;4.30;;;;;;;;;;5018933;28;20668;-51
2023/07/24 05:00:17;;;;;;;4.10;3.57;;;;;;;;;;5022153;28;20188;-50
2023/07/24 05:02:43;;;;;;;4.67;3.87;;;;;;;;;;5022752;28;20218;-51
2023/07/24 05:05:10;;;;;;;4.47;3.80;;;;;;;;;;5020303;28;20225;-52
2023/07/24 05:07:36;;;;;;;5.50;3.80;;;;;;;;;;5017981;28;20650;-52
2023/07/24 05:10:02;;;;;;;4.60;4.20;;;;;;;;;;5022619;28;20226;-52
2023/07/24 05:12:29;;;;;;;3.87;3.57;;;;;;;;;;5016404;28;20193;-52
2023/07/24 05:14:55;;;;;;;4.33;3.83;;;;;;;;;;5012544;28;20213;-52
2023/07/24 05:17:21;;;;;;;5.10;4.00;;;;;;;;;;5019036;28;20552;-52
2023/07/24 05:19:47;;;;;;;5.73;4.07;;;;;;;;;;5017480;28;20257;-52
2023/07/24 05:22:13;;;;;;;4.00;3.60;;;;;;;;;;5026959;28;20209;-52
2023/07/24 05:24:39;;;;;;;5.00;4.10;;;;;;;;;;5022289;28;20213;-52
2023/07/24 05:27:06;;;;;;;4.20;3.80;;;;;;;;;;5020543;28;20518;-53
2023/07/24 05:29:32;;;;;;;4.23;3.83;;;;;;;;;;5021789;28;20729;-53
2023/07/24 05:31:58;;;;;;;4.30;3.90;;;;;;;;;;5021571;28;20184;-53
2023/07/24 05:34:25;;;;;;;3.83;3.50;;;;;;;;;;5016334;28;20181;-53
2023/07/24 05:36:51;;;;;;;4.30;3.90;;;;;;;;;;5023258;28;20268;-53
2023/07/24 05:39:17;;;;;;;3.93;3.53;;;;;;;;;;5014500;28;20492;-53
2023/07/24 05:41:46;;;;;;;5.37;3.97;;;;;;;;;;5013936;28;20222;-53
2023/07/24 05:44:12;;;;;;;4.27;3.87;;;;;;;;;;5008477;28;20185;-53
2023/07/24 05:46:38;;;;;;;5.93;4.30;;;;;;;;;;5020862;28;20190;-53
2023/07/24 05:49:05;;;;;;;4.40;3.87;;;;;;;;;;5026192;28;20716;-53
2023/07/24 05:51:31;;;;;;;6.10;3.73;;;;;;;;;;5024379;28;20186;-53
2023/07/24 05:53:58;;;;;;;5.50;4.10;;;;;;;;;;5021583;28;20895;-53
2023/07/24 05:56:25;;;;;;;4.77;3.67;;;;;;;;;;5025623;28;20222;-53
2023/07/24 05:58:51;;;;;;;6.73;4.50;;;;;;;;;;5015171;28;20194;-53
2023/07/24 06:01:17;;;;;;;4.30;3.90;;;;;;;;;;5016306;28;20320;-54
2023/07/24 06:03:43;;;;;;;4.87;3.90;;;;;;;;;;5012390;28;20178;-53
2023/07/24 06:06:09;;;;;;;7.67;4.07;;;;;;;;;;5036573;28;20225;-53
2023/07/24 06:08:35;;;;;;;4.00;3.70;;;;;;;;;;5039934;28;20300;-53
2023/07/24 06:11:01;;;;;;;4.40;4.00;;;;;;;;;;5029507;28;20181;-53
2023/07/24 06:13:28;;;;;;;6.00;4.73;;;;;;;;;;5028092;28;20220;-53
2023/07/24 06:15:55;;;;;;;6.20;3.83;;;;;;;;;;5028048;28;20193;-54
2023/07/24 06:18:21;;;;;;;4.13;3.60;;;;;;;;;;5029136;28;20268;-54
2023/07/24 06:20:49;;;;;;;4.13;3.50;;;;;;;;;;5019010;28;20264;-54
2023/07/24 06:23:15;;;;;;;8.23;4.57;;;;;;;;;;5024150;28;20193;-54
2023/07/24 06:25:46;;;;;;;4.27;3.70;;;;;;;;;;5027704;28;20250;-54
2023/07/24 06:28:12;;;;;;;5.50;3.93;;;;;;;;;;5028492;28;20217;-54
2023/07/24 06:30:42;;;;;;;4.23;3.83;;;;;;;;;;5020793;28;20694;-54
2023/07/24 06:33:08;;;;;;;4.60;4.20;;;;;;;;;;5024506;28;20241;-54
2023/07/24 06:35:34;;;;;;;4.90;4.03;;;;;;;;;;5028007;28;20756;-54
2023/07/24 06:38:01;;;;;;;4.40;3.87;;;;;;;;;;5029534;28;20664;-54
2023/07/24 06:40:27;;;;;;;4.87;4.40;;;;;;;;;;5009211;28;20588;-54
2023/07/24 06:42:54;;;;;;;4.80;4.30;;;;;;;;;;5009439;28;20698;-54
2023/07/24 06:45:20;;;;;;;6.07;4.23;;;;;;;;;;5009233;28;20276;-54
2023/07/24 06:47:46;;;;;;;3.77;3.47;;;;;;;;;;5017660;28;20178;-54
2023/07/24 06:50:12;;;;;;;4.77;4.33;;;;;;;;;;5016068;28;20205;-54
2023/07/24 06:52:38;;;;;;;4.77;4.23;;;;;;;;;;5014354;28;20205;-54
2023/07/24 06:55:05;;;;;;;4.43;3.93;;;;;;;;;;5017630;28;20580;-55
2023/07/24 06:57:34;;;;;;;4.93;4.53;;;;;;;;;;5015460;28;20187;-54
2023/07/24 07:00:00;;;;;;;6.23;4.20;;;;;;;;;;5024190;28;20247;-53
2023/07/24 07:02:28;;;;;;;5.87;4.53;;;;;;;;;;5011822;28;20642;-54
2023/07/24 07:04:54;;;;;;;6.93;4.27;;;;;;;;;;5022414;28;20229;-53
2023/07/24 07:07:20;;;;;;;4.23;3.90;;;;;;;;;;5012815;28;20649;-53
2023/07/24 07:09:46;;;;;;;4.10;3.80;;;;;;;;;;5016824;28;20261;-53
2023/07/24 07:12:12;;;;;;;4.00;3.60;;;;;;;;;;5020105;28;20260;-53
2023/07/24 07:14:39;;;;;;;4.47;4.07;;;;;;;;;;5015840;28;20193;-53
2023/07/24 07:17:05;;;;;;;4.13;3.73;;;;;;;;;;5021647;28;20638;-53
2023/07/24 07:19:31;;;;;;;4.20;3.90;;;;;;;;;;5020958;28;20657;-53
2023/07/24 07:21:58;;;;;;;4.97;4.20;;;;;;;;;;5019588;28;20201;-53
2023/07/24 07:24:24;;;;;;;4.23;3.87;;;;;;;;;;5020643;28;20208;-53
2023/07/24 07:26:50;;;;;;;4.80;4.30;;;;;;;;;;5025958;28;20189;-53
2023/07/24 07:29:16;;;;;;;6.23;3.93;;;;;;;;;;5021209;28;20796;-52
2023/07/24 07:31:42;;;;;;;5.37;3.80;;;;;;;;;;5013516;28;20179;-53
2023/07/24 07:34:08;;;;;;;5.37;4.30;;;;;;;;;;5014028;28;20737;-54
2023/07/24 07:36:34;;;;;;;5.83;3.60;;;;;;;;;;5017832;28;20239;-53
2023/07/24 07:39:02;;;;;;;3.93;3.63;;;;;;;;;;5018997;28;20620;-53
2023/07/24 07:41:28;;;;;;;4.30;3.90;;;;;;;;;;5012818;28;20288;-53
2023/07/24 07:43:55;;;;;;;4.60;4.10;;;;;;;;;;5013637;28;20553;-53
2023/07/24 07:46:21;;;;;;;3.70;3.40;;;;;;;;;;5013804;28;20514;-54
2023/07/24 07:48:48;;;;;;;4.17;3.40;;;;;;;;;;5014985;28;20201;-53
2023/07/24 07:51:15;;;;;;;4.30;3.53;;;;;;;;;;5019859;28;20222;-53
2023/07/24 07:53:41;;;;;;;4.30;3.90;;;;;;;;;;5021607;28;20174;-53
2023/07/24 07:56:08;;;;;;;4.13;3.73;;;;;;;;;;5032190;28;20748;-53
2023/07/24 07:58:34;;;;;;;3.83;3.43;;;;;;;;;;5027972;28;20195;-53
2023/07/24 08:01:04;;;;;;;4.27;3.97;;;;;;;;;;5019417;28;20222;-53
2023/07/24 08:03:30;;;;;;;3.70;3.40;;;;;;;;;;5029862;28;20654;-53
2023/07/24 08:05:59;;;;;;;4.20;3.80;;;;;;;;;;5025966;28;20279;-53
2023/07/24 08:08:25;;;;;;;4.03;3.67;;;;;;;;;;5020520;28;20210;-54
2023/07/24 08:10:51;;;;;;;4.07;3.63;;;;;;;;;;5018807;28;20186;-53
2023/07/24 08:13:17;;;;;;;4.87;4.10;;;;;;;;;;5029029;28;20178;-54
2023/07/24 08:15:44;;;;;;;5.27;3.53;;;;;;;;;;5025599;28;20536;-53
2023/07/24 08:18:10;;;;;;;4.10;3.70;;;;;;;;;;5021715;28;20185;-54
2023/07/24 08:20:37;;;;;;;4.07;3.50;;;;;;;;;;5015028;28;20613;-54
2023/07/24 08:23:03;;;;;;;5.27;4.27;;;;;;;;;;5019464;28;20189;-54
2023/07/24 08:25:29;;;;;;;5.10;3.63;;;;;;;;;;5013323;28;20266;-54
2023/07/24 08:27:55;;;;;;;4.97;4.07;;;;;;;;;;5017939;28;20662;-54
2023/07/24 08:30:22;;;;;;;4.87;4.40;;;;;;;;;;5028651;28;20193;-54
2023/07/24 08:32:50;;;;;;;3.93;3.60;;;;;;;;;;5024323;28;20213;-54
2023/07/24 08:35:16;;;;;;;4.60;3.53;;;;;;;;;;5027227;28;20273;-55
2023/07/24 08:37:45;;;;;;;4.33;3.63;;;;;;;;;;5020782;28;20186;-54
2023/07/24 08:40:12;;;;;;;4.40;3.53;;;;;;;;;;5027768;28;20193;-55
2023/07/24 08:42:42;;;;;;;4.07;3.50;;;;;;;;;;5016245;28;20193;-55
2023/07/24 08:45:15;;;;;;;5.07;3.70;;;;;;;;;;5017137;28;20187;-55
2023/07/24 08:47:45;;;;;;;4.73;3.70;;;;;;;;;;5037309;28;20185;-55
2023/07/24 08:50:12;;;;;;;4.97;3.63;;;;;;;;;;5014804;28;20677;-55
2023/07/24 08:52:39;;;;;;;4.00;3.60;;;;;;;;;;5014543;28;20198;-55
2023/07/24 08:55:06;;;;;;;3.53;3.23;;;;;;;;;;5015056;28;20181;-55
2023/07/24 08:57:32;;;;;;;3.53;3.23;;;;;;;;;;5016082;28;20190;-55
2023/07/24 09:00:00;;;;;;;4.27;3.70;;;;;;;;;;5023575;28;20190;-55
2023/07/24 09:02:26;;;;;;;9.30;3.67;;;;;;;;;;5013098;28;20650;-55
2023/07/24 09:04:53;;;;;;;4.13;3.30;;;;;;;;;;5017927;28;20232;-55
2023/07/24 09:07:20;;;;;;;3.73;3.23;;;;;;;;;;5027607;28;20183;-55
2023/07/24 09:09:50;;;;;;;3.60;3.30;;;;;;;;;;5021913;28;20221;-55
2023/07/24 09:12:17;;;;;;;3.30;3.10;;;;;;;;;;5030460;28;20260;-57
2023/07/24 09:14:45;;;;;;;3.67;3.37;;;;;;;;;;5019383;28;20189;-54
2023/07/24 09:17:11;;;;;;;3.83;3.13;;;;;;;;;;5015376;28;20197;-54
2023/07/24 09:19:38;;;;;;;2.83;2.53;;;;;;;;;;5025354;28;20683;-54
2023/07/24 09:22:17;;;;;;;3.63;2.97;;;;;;;;;;5028959;28;20367;-55
2023/07/24 09:24:54;;;;;;;3.53;2.90;;;;;;;;;;5029486;28;20196;-54
2023/07/24 09:27:20;;;;;;;2.90;2.67;;;;;;;;;;5027544;28;20201;-55
2023/07/24 09:29:47;;;;;;;3.20;2.97;;;;;;;;;;5029700;28;20196;-54
2023/07/24 09:32:39;;;;;;;2.90;2.70;;;;;;;;;;5010655;28;20193;-54
2023/07/24 09:35:06;;;;;;;4.13;2.80;;;;;;;;;;5015292;28;20197;-53
2023/07/24 09:37:35;;;;;;;2.70;2.50;;;;;;;;;;5023766;28;20240;-53
2023/07/24 09:40:04;;;;;;;2.87;2.60;;;;;;;;;;5012087;28;20189;-53
2023/07/24 09:42:31;;;;;;;3.10;2.80;;;;;;;;;;5014910;28;20218;-53
2023/07/24 09:44:58;;;;;;;3.20;2.70;;;;;;;;;;5021588;28;20202;-54
2023/07/24 09:47:24;;;;;;;3.33;2.80;;;;;;;;;;5028255;28;20232;-53
2023/07/24 09:49:53;;;;;;;3.13;2.90;;;;;;;;;;5018336;28;20206;-54
2023/07/24 09:52:19;;;;;;;2.97;2.77;;;;;;;;;;5027350;28;20225;-53
2023/07/24 09:54:48;;;;;;;3.20;2.87;;;;;;;;;;5017308;28;20584;-53
2023/07/24 09:57:14;;;;;;;2.90;2.70;;;;;;;;;;5011915;28;20584;-53
2023/07/24 09:59:41;;;;;;;3.20;2.90;;;;;;;;;;5009746;28;20203;-53
2023/07/24 10:02:11;;;;;;;3.40;3.10;;;;;;;;;;5012121;28;20174;-53
2023/07/24 10:04:37;;;;;;;3.80;2.60;;;;;;;;;;5020472;28;20206;-53
2023/07/24 10:07:05;;;;;;;3.77;3.47;;;;;;;;;;5017458;28;20217;-53
2023/07/24 10:09:31;;;;;;;3.43;3.10;;;;;;;;;;5017821;28;20214;-53
2023/07/24 10:11:58;;;;;;;4.23;2.77;;;;;;;;;;5025068;28;20244;-53
2023/07/24 10:14:25;;;;;;;3.00;2.77;;;;;;;;;;5020935;28;20297;-53
2023/07/24 10:16:55;;;;;;;3.00;2.70;;;;;;;;;;5013811;28;20182;-53
2023/07/24 10:19:21;;;;;;;4.90;2.53;;;;;;;;;;5032916;28;20225;-55
2023/07/24 10:21:49;;;;;;;4.20;3.07;;;;;;;;;;5036824;28;20196;-54
2023/07/24 10:24:18;;;;;;;5.93;3.27;;;;;;;;;;5022829;28;20197;-54
2023/07/24 10:26:44;;;;;;;5.93;2.60;;;;;;;;;;5023489;28;20186;-54
2023/07/24 10:29:11;;;;;;;3.30;3.00;;;;;;;;;;5023542;28;20216;-54
2023/07/24 10:31:37;;;;;;;3.23;2.97;;;;;;;;;;5011795;28;20636;-54
2023/07/24 10:34:07;;;;;;;3.73;3.17;;;;;;;;;;5024548;28;20186;-54
2023/07/24 10:36:38;;;;;;;3.33;3.03;;;;;;;;;;5026513;28;21924;-54
2023/07/24 10:39:13;;;;;;;5.17;2.93;;;;;;;;;;5025020;28;20915;-54
2023/07/24 10:41:40;;;;;;;3.10;2.90;;;;;;;;;;5008081;28;20269;-55
2023/07/24 10:44:06;;;;;;;4.80;3.33;;;;;;;;;;5015803;28;20177;-54
2023/07/24 10:46:42;;;;;;;4.47;3.13;;;;;;;;;;5025253;28;20191;-54
2023/07/24 10:49:09;;;;;;;3.10;2.80;;;;;;;;;;5023943;28;20736;-53
2023/07/24 10:51:37;;;;;;;3.20;2.90;;;;;;;;;;5030840;28;20645;-54
2023/07/24 10:54:03;;;;;;;6.23;3.40;;;;;;;;;;5030685;28;20273;-53
2023/07/24 10:56:30;;;;;;;3.80;3.10;;;;;;;;;;5015773;28;20179;-54
2023/07/24 10:58:56;;;;;;;5.10;3.83;;;;;;;;;;5024090;28;20277;-54
2023/07/24 11:01:24;;;;;;;4.00;3.60;;;;;;;;;;5020121;28;20229;-54
2023/07/24 11:03:50;;;;;;;6.20;3.43;;;;;;;;;;5029693;28;20225;-55
2023/07/24 11:06:17;;;;;;;2.97;2.77;;;;;;;;;;5013741;28;20706;-55
2023/07/24 11:08:52;;;;;;;5.13;3.30;;;;;;;;;;5029070;28;20630;-54
2023/07/24 11:11:18;;;;;;;3.23;2.93;;;;;;;;;;5016321;28;20178;-54
2023/07/24 11:13:44;;;;;;;4.20;3.03;;;;;;;;;;5031074;28;20205;-54
2023/07/24 11:16:10;;;;;;;2.90;2.70;;;;;;;;;;5032705;28;20195;-54
2023/07/24 11:18:51;;;;;;;4.07;3.17;;;;;;;;;;5032021;28;20189;-54
2023/07/24 11:21:17;;;;;;;4.53;3.03;;;;;;;;;;5031004;28;20189;-55
2023/07/24 11:23:50;;;;;;;3.03;2.80;;;;;;;;;;5027222;28;20293;-56
2023/07/24 11:26:16;;;;;;;3.47;3.17;;;;;;;;;;5019996;28;20180;-56
2023/07/24 11:28:42;;;;;;;5.07;3.30;;;;;;;;;;5026663;28;20206;-55
2023/07/24 11:31:09;;;;;;;6.87;3.33;;;;;;;;;;5013241;28;20190;-56
2023/07/24 11:33:35;;;;;;;3.60;3.20;;;;;;;;;;5011824;28;20746;-59
2023/07/24 11:36:01;;;;;;;5.30;3.30;;;;;;;;;;5014887;28;20179;-56
2023/07/24 11:38:27;;;;;;;4.23;3.30;;;;;;;;;;5022260;28;20201;-56
2023/07/24 11:40:58;;;;;;;3.60;3.20;;;;;;;;;;5027897;28;20186;-55
2023/07/24 11:43:24;;;;;;;4.07;3.10;;;;;;;;;;5029765;28;20646;-55
2023/07/24 11:45:52;;;;;;;7.23;4.13;;;;;;;;;;5029584;28;20199;-54
2023/07/24 11:48:20;;;;;;;4.47;4.07;;;;;;;;;;5030494;28;20185;-55
2023/07/24 11:50:50;;;;;;;3.60;3.30;;;;;;;;;;5025476;28;20680;-55
2023/07/24 11:53:21;;;;;;;4.63;3.83;;;;;;;;;;5026464;28;20696;-54
2023/07/24 11:55:48;;;;;;;3.47;3.17;;;;;;;;;;5024606;28;20269;-54
2023/07/24 11:58:15;;;;;;;3.80;3.33;;;;;;;;;;5013725;28;20214;-54
2023/07/24 12:00:42;;;;;;;3.90;3.50;;;;;;;;;;5014302;28;20190;-53
2023/07/24 12:03:08;;;;;;;4.30;3.90;;;;;;;;;;5012303;28;20175;-53
2023/07/24 12:05:44;;;;;;;3.37;3.07;;;;;;;;;;5012950;28;20372;-53
2023/07/24 12:08:10;;;;;;;3.13;2.87;;;;;;;;;;5012564;28;20543;-53
2023/07/24 12:10:38;;;;;;;3.93;3.07;;;;;;;;;;5025789;28;20186;-53
2023/07/24 12:13:04;;;;;;;4.00;3.53;;;;;;;;;;5021454;28;20189;-53
2023/07/24 12:15:30;;;;;;;4.50;3.33;;;;;;;;;;5011686;28;20187;-53
2023/07/24 12:17:56;;;;;;;3.20;2.90;;;;;;;;;;5017520;28;20191;-53
2023/07/24 12:20:22;;;;;;;4.13;3.27;;;;;;;;;;5023550;28;20186;-53
2023/07/24 12:22:48;;;;;;;3.13;2.83;;;;;;;;;;5011888;28;20199;-53
2023/07/24 12:25:18;;;;;;;3.20;2.90;;;;;;;;;;5012147;28;20237;-53
2023/07/24 12:27:44;;;;;;;2.67;2.20;;;;;;;;;;5015317;28;20187;-53
2023/07/24 12:30:10;;;;;;;3.13;2.60;;;;;;;;;;5031249;28;20199;-53
2023/07/24 12:32:36;;;;;;;4.93;2.70;;;;;;;;;;5029481;28;20314;-53
2023/07/24 12:35:03;;;;;;;3.00;2.70;;;;;;;;;;5022594;28;20228;-53
2023/07/24 12:37:29;;;;;;;3.47;2.70;;;;;;;;;;5010510;28;20169;-53
2023/07/24 12:39:55;;;;;;;2.80;2.50;;;;;;;;;;5015380;28;20188;-54
2023/07/24 12:42:21;;;;;;;2.70;2.43;;;;;;;;;;5029989;28;20189;-53
2023/07/24 12:44:47;;;;;;;3.00;2.70;;;;;;;;;;5017570;28;20198;-54
2023/07/24 12:47:13;;;;;;;3.23;2.60;;;;;;;;;;5031185;28;20166;-53
2023/07/24 12:49:40;;;;;;;2.83;2.63;;;;;;;;;;5029502;28;20241;-54
2023/07/24 12:52:07;;;;;;;3.40;2.90;;;;;;;;;;5014497;28;20229;-54
2023/07/24 12:54:33;;;;;;;3.20;2.40;;;;;;;;;;5022098;28;20216;-54
2023/07/24 12:56:59;;;;;;;3.63;2.53;;;;;;;;;;5029412;28;20199;-54
2023/07/24 12:59:25;;;;;;;3.03;2.60;;;;;;;;;;5011891;28;20213;-54
2023/07/24 13:01:51;;;;;;;2.93;2.63;;;;;;;;;;5025901;28;20199;-54
2023/07/24 13:04:22;;;;;;;3.33;2.77;;;;;;;;;;5027216;28;20259;-55
2023/07/24 13:06:48;;;;;;;2.93;2.50;;;;;;;;;;5011274;28;20238;-55
2023/07/24 13:09:14;;;;;;;2.93;2.27;;;;;;;;;;5022113;28;20734;-55
2023/07/24 13:11:40;;;;;;;4.00;2.90;;;;;;;;;;5015847;28;20275;-55
2023/07/24 13:14:07;;;;;;;4.70;2.60;;;;;;;;;;5016365;28;20184;-55
2023/07/24 13:16:33;;;;;;;3.37;2.87;;;;;;;;;;5028644;28;20209;-55
2023/07/24 13:18:59;;;;;;;3.07;2.77;;;;;;;;;;5030638;28;20195;-55
2023/07/24 13:21:25;;;;;;;3.33;2.43;;;;;;;;;;5016754;28;20869;-55
2023/07/24 13:23:51;;;;;;;2.33;2.17;;;;;;;;;;5015058;28;20628;-55
2023/07/24 13:26:17;;;;;;;2.43;2.23;;;;;;;;;;5014319;28;20232;-55
2023/07/24 13:28:44;;;;;;;3.00;2.70;;;;;;;;;;5014657;28;20573;-55
2023/07/24 13:31:13;;;;;;;2.50;2.30;;;;;;;;;;5016929;28;20541;-56
2023/07/24 13:33:40;;;;;;;2.50;2.30;;;;;;;;;;5013899;28;20213;-56
2023/07/24 13:36:06;;;;;;;2.73;2.53;;;;;;;;;;5020403;28;20482;-55
2023/07/24 13:38:32;;;;;;;2.67;2.43;;;;;;;;;;5015049;28;20238;-55
2023/07/24 13:40:58;;;;;;;3.57;2.63;;;;;;;;;;5021902;28;20198;-55
2023/07/24 13:43:25;;;;;;;5.10;3.10;;;;;;;;;;5009164;28;20195;-55
2023/07/24 13:45:51;;;;;;;3.10;2.80;;;;;;;;;;5009035;28;20192;-55
2023/07/24 13:48:17;;;;;;;3.20;2.77;;;;;;;;;;5021655;28;20946;-55
2023/07/24 13:50:44;;;;;;;2.60;2.40;;;;;;;;;;5015407;28;20184;-55
2023/07/24 13:53:10;;;;;;;2.70;2.47;;;;;;;;;;5014330;28;20191;-55
2023/07/24 13:55:36;;;;;;;2.93;2.40;;;;;;;;;;5014101;28;20186;-56
2023/07/24 13:58:02;;;;;;;2.80;2.60;;;;;;;;;;5027549;28;20171;-55
2023/07/24 14:00:36;;;;;;;3.00;2.80;;;;;;;;;;5021684;28;20183;-56
2023/07/24 14:03:02;;;;;;;3.00;2.80;;;;;;;;;;5016538;28;20211;-55
2023/07/24 14:05:28;;;;;;;2.70;2.50;;;;;;;;;;5015400;28;20313;-55
2023/07/24 14:07:54;;;;;;;2.97;2.60;;;;;;;;;;5019803;28;20203;-55
2023/07/24 14:10:21;;;;;;;5.70;2.90;;;;;;;;;;5021169;28;20664;-56
2023/07/24 14:12:47;;;;;;;3.17;2.87;;;;;;;;;;5024956;28;20190;-55
2023/07/24 14:15:13;;;;;;;3.50;2.90;;;;;;;;;;5011283;28;20203;-55
2023/07/24 14:17:41;;;;;;;3.37;2.50;;;;;;;;;;5019436;28;20195;-54
2023/07/24 14:20:07;;;;;;;2.77;2.57;;;;;;;;;;5018322;28;20309;-55
2023/07/24 14:22:33;;;;;;;3.13;2.83;;;;;;;;;;5013106;28;20204;-55
2023/07/24 14:25:00;;;;;;;3.00;2.70;;;;;;;;;;5023642;28;20541;-54
2023/07/24 14:27:26;;;;;;;3.83;2.80;;;;;;;;;;5020146;28;20187;-55
2023/07/24 14:29:53;;;;;;;2.67;2.47;;;;;;;;;;5016677;28;20741;-56
2023/07/24 14:32:19;;;;;;;2.60;2.40;;;;;;;;;;5024657;28;20197;-54
2023/07/24 14:34:50;;;;;;;2.73;2.53;;;;;;;;;;5027125;28;20188;-54
2023/07/24 14:37:17;;;;;;;2.80;2.60;;;;;;;;;;5020040;28;20510;-53
2023/07/24 14:39:44;;;;;;;3.90;2.90;;;;;;;;;;5017583;28;20563;-54
2023/07/24 14:42:10;;;;;;;3.10;2.60;;;;;;;;;;5010598;28;20191;-54